createdAt,value
2023-04-30T00:01:09.650Z,96572.44
2023-04-30T00:03:36.877Z,96589.47
2023-04-30T00:06:03.990Z,96585.44
2023-04-30T00:08:31.020Z,96525.47
2023-04-30T00:10:57.910Z,96577.19
2023-04-30T00:13:24.773Z,96564.88
2023-04-30T00:15:51.700Z,96572.25
2023-04-30T00:18:18.610Z,96586.38
2023-04-30T00:20:45.456Z,96608.53
2023-04-30T00:23:12.332Z,96604.78
2023-04-30T00:25:39.183Z,96558.66
2023-04-30T00:28:06.037Z,96583.38
2023-04-30T00:30:32.943Z,96582.53
2023-04-30T00:32:59.857Z,96570.88
2023-04-30T00:35:26.756Z,96580.41
2023-04-30T00:37:53.633Z,96574.81
2023-04-30T00:40:20.996Z,96574.16
2023-04-30T00:42:48.941Z,96591.56
2023-04-30T00:45:17.936Z,96587.56
2023-04-30T00:47:44.980Z,96586.91
2023-04-30T00:50:16.113Z,96589.19
2023-04-30T00:52:43.775Z,96585.72
2023-04-30T00:55:12.570Z,96615.09
2023-04-30T00:57:41.288Z,96618.63
2023-04-30T01:00:11.311Z,96583.63
2023-04-30T01:02:38.854Z,96599.63
2023-04-30T01:05:07.078Z,96624.34
2023-04-30T01:07:36.609Z,96608.66
2023-04-30T01:10:03.750Z,96575.03
2023-04-30T01:12:49.590Z,96625.34
2023-04-30T01:15:29.465Z,96617.75
2023-04-30T01:18:15.143Z,96629.63
2023-04-30T01:20:49.100Z,96604.09
2023-04-30T01:23:34.693Z,96630.88
2023-04-30T01:26:21.474Z,96613.47
2023-04-30T01:28:52.028Z,96624.28
2023-04-30T01:31:19.937Z,96630.91
2023-04-30T01:33:47.148Z,96623.19
2023-04-30T01:36:32.250Z,96624.41
2023-04-30T01:40:00.950Z,96640.47
2023-04-30T01:43:03.015Z,96642.41
2023-04-30T01:45:48.702Z,96636.69
2023-04-30T01:48:30.733Z,96636.53
2023-04-30T01:51:13.040Z,96645.56
2023-04-30T01:53:43.211Z,96629.03
2023-04-30T01:56:21.888Z,96642.41
2023-04-30T01:58:50.195Z,96647.69
2023-04-30T02:01:31.304Z,96648.25
2023-04-30T02:03:58.867Z,96643.81
2023-04-30T02:06:30.485Z,96648.16
2023-04-30T02:09:02.679Z,96656.81
2023-04-30T02:11:30.437Z,96628.56
2023-04-30T02:13:57.313Z,96594.50
2023-04-30T02:16:24.767Z,96651.09
2023-04-30T02:18:51.914Z,96574.19
2023-04-30T02:21:18.856Z,96633.38
2023-04-30T02:23:46.137Z,96619.22
2023-04-30T02:26:12.995Z,96653.19
2023-04-30T02:28:39.924Z,96633.81
2023-04-30T02:31:07.123Z,96636.75
2023-04-30T02:33:34.002Z,96638.09
2023-04-30T02:36:01.037Z,96637.63
2023-04-30T02:38:28.347Z,96662.41
2023-04-30T02:40:55.264Z,96636.78
2023-04-30T02:43:22.174Z,96643.06
2023-04-30T02:45:49.341Z,96651.75
2023-04-30T02:48:16.278Z,96638.56
2023-04-30T02:50:43.288Z,96654.56
2023-04-30T02:53:10.193Z,96666.41
2023-04-30T02:55:37.030Z,96656.47
2023-04-30T02:58:04.380Z,96639.97
2023-04-30T03:00:31.247Z,96647.56
2023-04-30T03:02:58.213Z,96655.44
2023-04-30T03:05:25.086Z,96665.28
2023-04-30T03:07:51.944Z,96628.91
2023-04-30T03:10:19.388Z,96635.66
2023-04-30T03:12:46.210Z,96667.13
2023-04-30T03:15:13.178Z,96670.00
2023-04-30T03:17:40.117Z,96657.81
2023-04-30T03:20:07.730Z,96680.59
2023-04-30T03:22:34.693Z,96648.16
2023-04-30T03:25:01.551Z,96637.22
2023-04-30T03:27:28.448Z,96673.78
2023-04-30T03:29:55.557Z,96672.38
2023-04-30T03:32:22.974Z,96678.38
2023-04-30T03:34:50.551Z,96653.91
2023-04-30T03:37:17.536Z,96675.19
2023-04-30T03:39:44.405Z,96676.72
2023-04-30T03:42:11.300Z,96666.88
2023-04-30T03:44:39.289Z,96665.97
2023-04-30T03:47:06.267Z,96672.53
2023-04-30T03:49:33.630Z,96663.78
2023-04-30T03:52:01.263Z,96673.41
2023-04-30T03:54:28.162Z,96677.28
2023-04-30T03:56:55.226Z,96664.13
2023-04-30T03:59:22.147Z,96692.53
2023-04-30T04:01:49.183Z,96685.69
2023-04-30T04:04:16.225Z,96680.00
2023-04-30T04:06:43.650Z,96654.34
2023-04-30T04:09:10.710Z,96678.66
2023-04-30T04:11:41.723Z,96690.66
2023-04-30T04:14:08.665Z,96682.75
2023-04-30T04:16:35.637Z,96654.38
2023-04-30T04:19:02.557Z,96696.47
2023-04-30T04:21:29.477Z,96675.16
2023-04-30T04:23:57.319Z,96675.88
2023-04-30T04:26:25.792Z,96685.00
2023-04-30T04:28:53.108Z,96711.28
2023-04-30T04:31:21.028Z,96670.53
2023-04-30T04:33:47.995Z,96683.31
2023-04-30T04:36:14.854Z,96703.56
2023-04-30T04:38:42.269Z,96694.53
2023-04-30T04:41:09.244Z,96698.47
2023-04-30T04:43:37.286Z,96697.25
2023-04-30T04:46:04.490Z,96693.88
2023-04-30T04:48:31.447Z,96659.53
2023-04-30T04:50:58.350Z,96689.81
2023-04-30T04:53:25.323Z,96708.19
2023-04-30T04:55:52.589Z,96678.84
2023-04-30T04:58:19.613Z,96690.34
2023-04-30T05:00:46.435Z,96643.84
2023-04-30T05:03:14.603Z,96706.34
2023-04-30T05:05:41.745Z,96701.53
2023-04-30T05:08:08.623Z,96733.25
2023-04-30T05:10:36.444Z,96688.13
2023-04-30T05:13:03.373Z,96708.72
2023-04-30T05:15:30.247Z,96717.56
2023-04-30T05:17:57.245Z,96671.38
2023-04-30T05:20:24.177Z,96700.13
2023-04-30T05:22:51.069Z,96679.75
2023-04-30T05:25:17.937Z,96705.28
2023-04-30T05:27:44.900Z,96659.84
2023-04-30T05:30:12.246Z,96661.06
2023-04-30T05:32:39.125Z,96697.06
2023-04-30T05:35:06.362Z,96700.03
2023-04-30T05:37:33.204Z,96729.78
2023-04-30T05:40:00.229Z,96682.38
2023-04-30T05:42:27.185Z,96732.78
2023-04-30T05:44:54.613Z,96732.19
2023-04-30T05:47:21.511Z,96700.09
2023-04-30T05:49:48.319Z,96703.09
2023-04-30T05:52:17.539Z,96718.63
2023-04-30T05:54:44.537Z,96748.28
2023-04-30T05:57:11.459Z,96669.50
2023-04-30T05:59:38.296Z,96732.41
2023-04-30T06:02:05.224Z,96722.53
2023-04-30T06:04:32.188Z,96694.75
2023-04-30T06:06:59.168Z,96726.63
2023-04-30T06:09:26.230Z,96718.19
2023-04-30T06:11:53.444Z,96739.09
2023-04-30T06:14:20.548Z,96722.91
2023-04-30T06:16:47.637Z,96691.69
2023-04-30T06:19:14.596Z,96754.19
2023-04-30T06:21:43.724Z,96724.06
2023-04-30T06:24:10.903Z,96755.59
2023-04-30T06:26:38.930Z,96745.94
2023-04-30T06:29:06.265Z,96756.22
2023-04-30T06:31:33.225Z,96752.81
2023-04-30T06:34:00.107Z,96742.84
2023-04-30T06:36:27.016Z,96755.63
2023-04-30T06:38:53.827Z,96741.22
2023-04-30T06:41:21.198Z,96737.63
2023-04-30T06:43:48.106Z,96732.56
2023-04-30T06:46:15.420Z,96726.31
2023-04-30T06:48:42.314Z,96727.66
2023-04-30T06:51:10.489Z,96779.66
2023-04-30T06:53:37.782Z,96760.59
2023-04-30T06:56:04.911Z,96775.72
2023-04-30T06:58:31.769Z,96743.59
2023-04-30T07:00:58.744Z,96748.66
2023-04-30T07:03:25.793Z,96773.00
2023-04-30T07:05:54.234Z,96763.28
2023-04-30T07:08:21.485Z,96735.56
2023-04-30T07:10:48.349Z,96765.56
2023-04-30T07:13:15.214Z,96758.03
2023-04-30T07:15:42.515Z,96737.94
2023-04-30T07:18:10.383Z,96731.47
2023-04-30T07:20:37.439Z,96782.88
2023-04-30T07:23:04.265Z,96745.44
2023-04-30T07:25:31.272Z,96777.44
2023-04-30T07:27:58.145Z,96748.47
2023-04-30T07:30:25.411Z,96743.06
2023-04-30T07:32:52.504Z,96760.38
2023-04-30T07:35:19.413Z,96687.97
2023-04-30T07:37:46.351Z,96742.13
2023-04-30T07:40:19.321Z,96733.13
2023-04-30T07:42:52.489Z,96720.00
2023-04-30T07:45:19.343Z,96741.91
2023-04-30T07:47:46.671Z,96758.91
2023-04-30T07:50:15.084Z,96734.44
2023-04-30T07:52:42.500Z,96780.06
2023-04-30T07:55:09.660Z,96755.78
2023-04-30T07:57:36.528Z,96775.19
2023-04-30T08:00:04.296Z,96744.59
2023-04-30T08:02:39.365Z,96731.97
2023-04-30T08:05:06.581Z,96731.50
2023-04-30T08:07:33.471Z,96773.44
2023-04-30T08:10:00.343Z,96775.50
2023-04-30T08:12:27.294Z,96753.44
2023-04-30T08:15:04.290Z,96743.66
2023-04-30T08:17:34.995Z,96788.72
2023-04-30T08:20:06.362Z,96710.69
2023-04-30T08:22:33.648Z,96764.47
2023-04-30T08:25:02.100Z,96746.94
2023-04-30T08:27:31.596Z,96714.53
2023-04-30T08:29:58.723Z,96766.38
2023-04-30T08:32:26.215Z,96775.44
2023-04-30T08:34:54.675Z,96764.94
2023-04-30T08:37:21.760Z,96761.38
2023-04-30T08:39:48.606Z,96778.94
2023-04-30T08:42:21.510Z,96773.47
2023-04-30T08:44:48.576Z,96758.84
2023-04-30T08:47:17.282Z,96784.63
2023-04-30T08:49:46.270Z,96780.69
2023-04-30T08:52:13.283Z,96777.16
2023-04-30T08:54:40.170Z,96776.72
2023-04-30T08:57:07.643Z,96758.72
2023-04-30T08:59:34.598Z,96747.66
2023-04-30T09:02:02.432Z,96730.38
2023-04-30T09:04:29.567Z,96759.34
2023-04-30T09:06:59.491Z,96745.00
2023-04-30T09:09:33.603Z,96773.44
2023-04-30T09:12:20.709Z,96777.84
2023-04-30T09:15:05.352Z,96780.22
2023-04-30T09:17:34.450Z,96786.38
2023-04-30T09:20:12.427Z,96728.81
2023-04-30T09:22:41.498Z,96782.41
2023-04-30T09:25:09.765Z,96779.47
2023-04-30T09:27:36.721Z,96744.59
2023-04-30T09:30:03.898Z,96774.50
2023-04-30T09:32:30.828Z,96762.47
2023-04-30T09:34:57.680Z,96766.84
2023-04-30T09:37:38.716Z,96768.06
2023-04-30T09:40:06.385Z,96774.25
2023-04-30T09:42:33.410Z,96750.41
2023-04-30T09:45:00.314Z,96762.03
2023-04-30T09:47:30.327Z,96776.22
2023-04-30T09:50:00.387Z,96767.16
2023-04-30T09:52:27.449Z,96736.19
2023-04-30T09:54:54.361Z,96747.59
2023-04-30T09:57:24.482Z,96770.13
2023-04-30T09:59:53.837Z,96778.78
2023-04-30T10:02:23.718Z,96749.69
2023-04-30T10:04:56.225Z,96769.31
2023-04-30T10:07:25.462Z,96760.66
2023-04-30T10:10:07.869Z,96787.75
2023-04-30T10:12:50.588Z,96786.09
2023-04-30T10:15:31.210Z,96745.13
2023-04-30T10:18:02.493Z,96775.41
2023-04-30T10:20:30.886Z,96764.03
2023-04-30T10:22:58.107Z,96757.53
2023-04-30T10:25:28.360Z,96763.66
2023-04-30T10:27:55.376Z,96760.50
2023-04-30T10:30:22.866Z,96766.69
2023-04-30T10:32:56.014Z,96776.59
2023-04-30T10:35:28.870Z,96775.34
2023-04-30T10:38:04.954Z,96744.25
2023-04-30T10:40:37.350Z,96742.00
2023-04-30T10:43:04.389Z,96740.13
2023-04-30T10:45:41.699Z,96746.28
2023-04-30T10:48:08.829Z,96737.81
2023-04-30T10:50:46.856Z,96731.13
2023-04-30T10:53:19.980Z,96738.50
2023-04-30T10:55:51.586Z,96711.38
2023-04-30T10:58:25.500Z,96739.66
2023-04-30T11:01:01.650Z,96695.34
2023-04-30T11:03:29.364Z,96724.75
2023-04-30T11:05:56.570Z,96734.72
2023-04-30T11:08:37.583Z,96716.41
2023-04-30T11:11:05.555Z,96733.94
2023-04-30T11:13:42.495Z,96736.47
2023-04-30T11:16:09.779Z,96733.81
2023-04-30T11:18:46.552Z,96713.81
2023-04-30T11:21:14.184Z,96713.66
2023-04-30T11:23:45.731Z,96740.94
2023-04-30T11:26:13.037Z,96724.31
2023-04-30T11:28:51.641Z,96729.25
2023-04-30T11:31:18.820Z,96723.47
2023-04-30T11:33:46.651Z,96717.09
2023-04-30T11:36:14.750Z,96705.47
2023-04-30T11:38:42.155Z,96712.94
2023-04-30T11:41:13.208Z,96718.28
2023-04-30T11:43:40.285Z,96698.91
2023-04-30T11:46:17.719Z,96710.69
2023-04-30T11:48:47.010Z,96698.63
2023-04-30T11:51:27.152Z,96690.06
2023-04-30T11:53:54.386Z,96706.97
2023-04-30T11:56:22.788Z,96642.44
2023-04-30T11:58:50.768Z,96705.31
2023-04-30T12:01:18.439Z,96701.31
2023-04-30T12:03:47.479Z,96686.78
2023-04-30T12:06:26.650Z,96688.63
2023-04-30T12:08:55.348Z,96679.56
2023-04-30T12:11:27.833Z,96691.16
2023-04-30T12:14:03.653Z,96665.75
2023-04-30T12:16:49.627Z,96687.50
2023-04-30T12:19:21.594Z,96673.81
2023-04-30T12:21:49.928Z,96669.34
2023-04-30T12:24:18.885Z,96681.09
2023-04-30T12:26:46.394Z,96688.88
2023-04-30T12:29:16.888Z,96689.63
2023-04-30T12:31:44.694Z,96660.38
2023-04-30T12:34:15.408Z,96688.22
2023-04-30T12:36:43.438Z,96685.78
2023-04-30T12:39:16.308Z,96677.38
2023-04-30T12:41:48.704Z,96664.91
2023-04-30T12:44:24.979Z,96682.97
2023-04-30T12:46:58.274Z,96678.78
2023-04-30T12:49:34.946Z,96655.72
2023-04-30T12:52:04.643Z,96668.41
2023-04-30T12:54:32.967Z,96596.97
2023-04-30T12:57:01.877Z,96671.34
2023-04-30T12:59:32.796Z,96633.59
2023-04-30T13:02:12.141Z,96632.97
2023-04-30T13:04:40.472Z,96669.69
2023-04-30T13:07:07.506Z,96652.91
2023-04-30T13:09:36.814Z,96630.38
2023-04-30T13:12:04.876Z,96652.31
2023-04-30T13:14:32.472Z,96645.66
2023-04-30T13:16:59.533Z,96633.47
2023-04-30T13:19:27.077Z,96645.81
2023-04-30T13:21:54.056Z,96613.47
2023-04-30T13:24:21.190Z,96628.63
2023-04-30T13:26:48.415Z,96613.09
2023-04-30T13:29:15.377Z,96612.72
2023-04-30T13:31:42.696Z,96633.75
2023-04-30T13:34:10.322Z,96623.69
2023-04-30T13:36:37.227Z,96631.81
2023-04-30T13:39:05.096Z,96619.75
2023-04-30T13:41:32.267Z,96636.88
2023-04-30T13:44:00.364Z,96590.38
2023-04-30T13:46:27.387Z,96631.41
2023-04-30T13:48:54.292Z,96626.47
2023-04-30T13:51:21.245Z,96611.97
2023-04-30T13:53:48.273Z,96579.22
2023-04-30T13:56:15.724Z,96583.59
2023-04-30T13:58:42.764Z,96595.59
2023-04-30T14:01:10.652Z,96614.50
2023-04-30T14:03:37.852Z,96579.28
2023-04-30T14:06:06.135Z,96616.34
2023-04-30T14:08:34.041Z,96609.25
2023-04-30T14:11:01.445Z,96603.91
2023-04-30T14:13:28.334Z,96617.13
2023-04-30T14:15:56.321Z,96595.72
2023-04-30T14:18:23.348Z,96588.09
2023-04-30T14:20:50.279Z,96602.50
2023-04-30T14:23:17.223Z,96606.69
2023-04-30T14:25:44.670Z,96593.97
2023-04-30T14:28:12.194Z,96598.66
2023-04-30T14:30:39.253Z,96588.25
2023-04-30T14:33:06.273Z,96597.53
2023-04-30T14:35:36.089Z,96567.50
2023-04-30T14:38:02.968Z,96585.91
2023-04-30T14:40:32.082Z,96589.22
2023-04-30T14:42:58.941Z,96589.94
2023-04-30T14:45:28.468Z,96587.72
2023-04-30T14:47:55.650Z,96584.72
2023-04-30T14:50:25.227Z,96571.88
2023-04-30T14:52:52.033Z,96553.59
2023-04-30T14:55:19.058Z,96549.47
2023-04-30T14:57:46.097Z,96578.50
2023-04-30T15:00:13.694Z,96572.56
2023-04-30T15:02:40.674Z,96571.44
2023-04-30T15:05:08.830Z,96574.28
2023-04-30T15:07:37.081Z,96560.63
2023-04-30T15:10:04.216Z,96562.44
2023-04-30T15:12:31.170Z,96567.81
2023-04-30T15:14:58.226Z,96553.91
2023-04-30T15:17:25.257Z,96546.91
2023-04-30T15:19:53.793Z,96537.31
2023-04-30T15:22:21.383Z,96557.34
2023-04-30T15:24:48.197Z,96557.91
2023-04-30T15:27:15.086Z,96558.03
2023-04-30T15:29:41.954Z,96543.44
2023-04-30T15:32:09.299Z,96538.47
2023-04-30T15:34:36.181Z,96535.69
2023-04-30T15:37:03.126Z,96534.63
2023-04-30T15:39:30.092Z,96558.69
2023-04-30T15:41:57.018Z,96540.53
2023-04-30T15:44:24.009Z,96556.25
2023-04-30T15:46:51.880Z,96548.13
2023-04-30T15:49:19.083Z,96544.09
2023-04-30T15:51:46.517Z,96553.19
2023-04-30T15:54:14.215Z,96542.25
2023-04-30T15:56:41.422Z,96539.47
2023-04-30T15:59:08.304Z,96533.84
2023-04-30T16:01:35.209Z,96523.84
2023-04-30T16:04:02.280Z,96520.78
2023-04-30T16:06:30.262Z,96526.38
2023-04-30T16:08:57.419Z,96505.00
2023-04-30T16:11:24.439Z,96491.81
2023-04-30T16:13:54.622Z,96526.53
2023-04-30T16:16:21.641Z,96521.91
2023-04-30T16:18:48.629Z,96509.09
2023-04-30T16:21:16.178Z,96497.75
2023-04-30T16:23:43.345Z,96525.50
2023-04-30T16:26:10.262Z,96530.78
2023-04-30T16:28:37.328Z,96498.44
2023-04-30T16:31:04.528Z,96520.09
2023-04-30T16:33:31.408Z,96525.16
2023-04-30T16:35:58.305Z,96525.69
2023-04-30T16:38:25.211Z,96523.69
2023-04-30T16:40:52.331Z,96520.09
2023-04-30T16:43:19.161Z,96501.84
2023-04-30T16:45:48.179Z,96505.22
2023-04-30T16:48:15.453Z,96492.41
2023-04-30T16:50:42.430Z,96488.84
2023-04-30T16:53:10.974Z,96496.88
2023-04-30T16:55:38.046Z,96480.78
2023-04-30T16:58:04.941Z,96493.28
2023-04-30T17:00:31.924Z,96493.84
2023-04-30T17:02:58.906Z,96503.28
2023-04-30T17:05:26.481Z,96501.94
2023-04-30T17:07:53.341Z,96477.72
2023-04-30T17:10:21.798Z,96506.03
2023-04-30T17:12:48.855Z,96466.66
2023-04-30T17:15:15.812Z,96484.84
2023-04-30T17:17:42.967Z,96509.94
2023-04-30T17:20:10.445Z,96509.88
2023-04-30T17:22:38.524Z,96506.38
2023-04-30T17:25:05.791Z,96514.13
2023-04-30T17:27:32.682Z,96487.28
2023-04-30T17:29:59.618Z,96521.84
2023-04-30T17:32:27.247Z,96501.59
2023-04-30T17:34:54.215Z,96513.50
2023-04-30T17:37:21.118Z,96501.94
2023-04-30T17:39:48.012Z,96506.63
2023-04-30T17:42:14.960Z,96514.25
2023-04-30T17:44:42.001Z,96518.63
2023-04-30T17:47:08.862Z,96520.19
2023-04-30T17:49:35.830Z,96512.28
2023-04-30T17:52:05.909Z,96496.16
2023-04-30T17:54:34.067Z,96510.66
2023-04-30T17:57:01.335Z,96510.31
2023-04-30T17:59:29.506Z,96515.66
2023-04-30T18:01:56.779Z,96516.44
2023-04-30T18:04:24.078Z,96517.28
2023-04-30T18:06:51.718Z,96455.19
2023-04-30T18:09:19.043Z,96522.78
2023-04-30T18:11:46.293Z,96518.75
2023-04-30T18:14:13.228Z,96495.66
2023-04-30T18:16:41.499Z,96497.78
2023-04-30T18:19:08.488Z,96520.75
2023-04-30T18:21:35.540Z,96511.16
2023-04-30T18:24:02.951Z,96517.41
2023-04-30T18:26:30.120Z,96519.41
2023-04-30T18:28:57.901Z,96475.13
2023-04-30T18:31:24.795Z,96511.03
2023-04-30T18:33:51.702Z,96514.28
2023-04-30T18:36:18.584Z,96490.00
2023-04-30T18:38:45.911Z,96501.22
2023-04-30T18:41:12.962Z,96503.06
2023-04-30T18:43:42.724Z,96511.94
2023-04-30T18:46:09.725Z,96512.06
2023-04-30T18:48:36.761Z,96525.22
2023-04-30T18:51:03.696Z,96527.97
2023-04-30T18:53:30.871Z,96523.38
2023-04-30T18:55:58.193Z,96507.03
2023-04-30T18:58:25.154Z,96511.44
2023-04-30T19:00:52.086Z,96504.47
2023-04-30T19:03:19.120Z,96509.47
2023-04-30T19:05:46.057Z,96500.50
2023-04-30T19:08:12.908Z,96501.66
2023-04-30T19:10:39.821Z,96513.84
2023-04-30T19:13:07.143Z,96511.53
2023-04-30T19:15:34.059Z,96525.25
2023-04-30T19:18:01.551Z,96488.03
2023-04-30T19:20:28.522Z,96488.25
2023-04-30T19:22:55.568Z,96513.56
2023-04-30T19:25:23.654Z,96471.75
2023-04-30T19:27:50.622Z,96504.66
2023-04-30T19:30:17.650Z,96505.88
2023-04-30T19:32:44.766Z,96517.34
2023-04-30T19:35:11.792Z,96522.44
2023-04-30T19:37:38.655Z,96532.28
2023-04-30T19:40:12.363Z,96510.97
2023-04-30T19:42:40.209Z,96503.13
2023-04-30T19:45:09.784Z,96491.97
2023-04-30T19:47:38.330Z,96526.56
2023-04-30T19:50:05.837Z,96517.59
2023-04-30T19:52:32.787Z,96514.69
2023-04-30T19:54:59.920Z,96488.41
2023-04-30T19:57:28.323Z,96476.66
2023-04-30T19:59:55.377Z,96516.97
2023-04-30T20:02:23.094Z,96503.47
2023-04-30T20:04:50.386Z,96465.19
2023-04-30T20:07:19.237Z,96485.16
2023-04-30T20:09:46.698Z,96517.84
2023-04-30T20:12:14.129Z,96499.88
2023-04-30T20:14:41.480Z,96512.03
2023-04-30T20:17:09.143Z,96521.31
2023-04-30T20:19:37.005Z,96492.66
2023-04-30T20:22:05.006Z,96488.59
2023-04-30T20:24:32.309Z,96504.28
2023-04-30T20:27:00.187Z,96519.00
2023-04-30T20:29:27.673Z,96489.34
2023-04-30T20:31:54.692Z,96500.81
2023-04-30T20:34:22.483Z,96459.47
2023-04-30T20:36:49.998Z,96524.91
2023-04-30T20:39:17.591Z,96497.75
2023-04-30T20:41:48.160Z,96516.03
2023-04-30T20:44:15.103Z,96503.66
2023-04-30T20:46:43.461Z,96517.38
2023-04-30T20:49:12.097Z,96538.53
2023-04-30T20:51:39.740Z,96507.06
2023-04-30T20:54:08.871Z,96521.84
2023-04-30T20:56:35.951Z,96506.03
2023-04-30T20:59:04.951Z,96513.19
2023-04-30T21:01:31.980Z,96513.06
2023-04-30T21:04:00.418Z,96503.66
2023-04-30T21:06:28.288Z,96524.31
2023-04-30T21:08:55.279Z,96508.19
2023-04-30T21:11:22.153Z,96532.56
2023-04-30T21:13:51.342Z,96523.09
2023-04-30T21:16:18.867Z,96545.75
2023-04-30T21:18:46.542Z,96535.69
2023-04-30T21:21:13.566Z,96542.19
2023-04-30T21:23:41.682Z,96518.94
2023-04-30T21:26:08.779Z,96536.34
2023-04-30T21:28:35.709Z,96542.41
2023-04-30T21:31:07.514Z,96547.66
2023-04-30T21:33:35.570Z,96528.91
2023-04-30T21:36:03.404Z,96527.66
2023-04-30T21:38:30.284Z,96554.19
2023-04-30T21:40:57.498Z,96535.59
2023-04-30T21:43:24.361Z,96550.31
2023-04-30T21:45:51.275Z,96509.53
2023-04-30T21:48:18.619Z,96531.09
2023-04-30T21:50:47.219Z,96505.97
2023-04-30T21:53:14.750Z,96563.81
2023-04-30T21:55:41.981Z,96542.25
2023-04-30T21:58:09.307Z,96526.56
2023-04-30T22:00:36.551Z,96532.31
2023-04-30T22:03:04.189Z,96540.38
2023-04-30T22:05:31.935Z,96527.47
2023-04-30T22:07:58.844Z,96545.47
2023-04-30T22:10:25.721Z,96544.56
2023-04-30T22:12:52.690Z,96508.06
2023-04-30T22:15:19.577Z,96499.34
2023-04-30T22:17:46.735Z,96515.78
2023-04-30T22:20:13.662Z,96537.28
2023-04-30T22:22:40.609Z,96544.22
2023-04-30T22:25:09.296Z,96538.03
2023-04-30T22:27:36.359Z,96503.59
2023-04-30T22:30:04.180Z,96518.78
2023-04-30T22:32:32.552Z,96522.22
2023-04-30T22:34:59.573Z,96518.19
2023-04-30T22:37:26.581Z,96522.22
2023-04-30T22:39:53.568Z,96528.44
2023-04-30T22:42:20.526Z,96490.56
2023-04-30T22:44:47.417Z,96494.47
2023-04-30T22:47:14.574Z,96509.97
2023-04-30T22:49:41.805Z,96523.13
2023-04-30T22:52:09.060Z,96523.91
2023-04-30T22:54:36.251Z,96505.00
2023-04-30T22:57:03.356Z,96523.78
2023-04-30T22:59:30.279Z,96530.56
2023-04-30T23:01:57.449Z,96484.47
2023-04-30T23:04:24.604Z,96516.63
2023-04-30T23:06:51.591Z,96501.38
2023-04-30T23:09:19.493Z,96520.00
2023-04-30T23:11:48.510Z,96516.91
2023-04-30T23:14:15.515Z,96500.72
2023-04-30T23:16:42.910Z,96492.41
2023-04-30T23:19:10.698Z,96502.94
2023-04-30T23:21:37.860Z,96515.38
2023-04-30T23:24:04.952Z,96506.22
2023-04-30T23:26:31.963Z,96519.53
2023-04-30T23:28:58.932Z,96517.53
2023-04-30T23:31:25.859Z,96496.25
2023-04-30T23:33:53.058Z,96511.16
2023-04-30T23:36:19.965Z,96457.56
2023-04-30T23:38:47.075Z,96511.22
2023-04-30T23:41:14.406Z,96508.44
2023-04-30T23:43:41.383Z,96502.19
2023-04-30T23:46:11.067Z,96502.44
2023-04-30T23:48:41.107Z,96487.47
2023-04-30T23:51:09.101Z,96446.88
2023-04-30T23:53:36.102Z,96475.88
2023-04-30T23:56:03.130Z,96425.59
2023-04-30T23:58:30.617Z,96466.75
